createdAt,value
2022-10-01T00:00:17.882Z,90.87
2022-10-01T00:02:44.499Z,90.76
2022-10-01T00:05:11.116Z,90.73
2022-10-01T00:07:38.790Z,90.55
2022-10-01T00:10:06.790Z,90.77
2022-10-01T00:12:35.074Z,90.67
2022-10-01T00:15:05.737Z,90.50
2022-10-01T00:17:33.835Z,90.62
2022-10-01T00:20:01.108Z,90.52
2022-10-01T00:22:29.578Z,90.56
2022-10-01T00:24:56.106Z,90.76
2022-10-01T00:27:22.848Z,90.57
2022-10-01T00:29:50.679Z,90.56
2022-10-01T00:32:17.340Z,90.72
2022-10-01T00:34:43.930Z,90.63
2022-10-01T00:37:10.543Z,90.67
2022-10-01T00:39:37.245Z,90.69
2022-10-01T00:42:04.404Z,90.85
2022-10-01T00:44:33.572Z,90.66
2022-10-01T00:47:12.443Z,90.86
2022-10-01T00:49:39.945Z,90.87
2022-10-01T00:52:11.455Z,91.04
2022-10-01T00:54:43.297Z,90.94
2022-10-01T00:57:11.803Z,91.17
2022-10-01T00:59:38.370Z,90.76
2022-10-01T01:02:06.448Z,91.34
2022-10-01T01:04:32.992Z,90.86
2022-10-01T01:07:03.627Z,91.18
2022-10-01T01:09:33.345Z,91.34
2022-10-01T01:12:10.653Z,91.47
2022-10-01T01:14:45.100Z,91.68
2022-10-01T01:17:22.399Z,92.03
2022-10-01T01:20:07.646Z,91.86
2022-10-01T01:22:41.398Z,92.33
2022-10-01T01:25:17.502Z,92.09
2022-10-01T01:27:46.405Z,92.50
2022-10-01T01:30:17.470Z,92.29
2022-10-01T01:32:50.641Z,92.74
2022-10-01T01:35:23.426Z,92.82
2022-10-01T01:37:55.953Z,93.28
2022-10-01T01:40:25.272Z,93.58
2022-10-01T01:42:54.761Z,93.61
2022-10-01T01:45:26.782Z,93.73
2022-10-01T01:47:55.275Z,93.80
2022-10-01T01:50:24.729Z,93.84
2022-10-01T01:52:51.604Z,93.78
2022-10-01T01:55:18.536Z,93.77
2022-10-01T01:57:45.752Z,94.55
2022-10-01T02:00:13.479Z,94.61
2022-10-01T02:02:46.901Z,94.78
2022-10-01T02:05:17.789Z,95.09
2022-10-01T02:08:25.288Z,95.29
2022-10-01T02:11:04.355Z,95.61
2022-10-01T02:13:40.175Z,95.69
2022-10-01T02:16:14.149Z,96.27
2022-10-01T02:18:49.628Z,96.66
2022-10-01T02:21:21.119Z,96.88
2022-10-01T02:23:54.141Z,97.73
2022-10-01T02:26:23.051Z,98.43
2022-10-01T02:28:54.083Z,98.64
2022-10-01T02:31:23.096Z,98.93
2022-10-01T02:33:53.489Z,99.21
2022-10-01T02:36:22.062Z,99.26
2022-10-01T02:38:49.172Z,99.07
2022-10-01T02:41:20.287Z,98.40
2022-10-01T02:43:51.090Z,99.05
2022-10-01T02:46:23.449Z,98.05
2022-10-01T02:48:51.500Z,97.90
2022-10-01T02:51:27.518Z,98.14
2022-10-01T02:53:58.988Z,97.86
2022-10-01T02:56:27.131Z,97.73
2022-10-01T02:58:53.875Z,98.27
2022-10-01T03:01:20.537Z,97.45
2022-10-01T03:03:47.065Z,96.94
2022-10-01T03:06:15.001Z,97.49
2022-10-01T03:08:41.530Z,97.57
2022-10-01T03:11:08.149Z,97.42
2022-10-01T03:13:34.666Z,97.67
2022-10-01T03:16:01.839Z,97.87
2022-10-01T03:18:28.373Z,97.83
2022-10-01T03:20:54.956Z,98.28
2022-10-01T03:23:22.861Z,98.09
2022-10-01T03:25:49.429Z,98.64
2022-10-01T03:28:15.987Z,99.17
2022-10-01T03:30:42.600Z,98.89
2022-10-01T03:33:09.122Z,99.05
2022-10-01T03:35:35.683Z,97.38
2022-10-01T03:38:02.206Z,97.14
2022-10-01T03:40:30.218Z,96.87
2022-10-01T03:42:56.747Z,97.47
2022-10-01T03:45:23.426Z,97.83
2022-10-01T03:47:53.287Z,97.85
2022-10-01T03:50:20.031Z,98.71
2022-10-01T03:52:46.556Z,98.96
2022-10-01T03:55:13.278Z,98.59
2022-10-01T03:57:41.143Z,98.42
2022-10-01T04:00:10.917Z,98.27
2022-10-01T04:02:40.136Z,98.51
2022-10-01T04:05:07.385Z,98.63
2022-10-01T04:07:33.949Z,99.18
2022-10-01T04:10:00.459Z,99.07
2022-10-01T04:12:26.948Z,98.88
2022-10-01T04:14:54.846Z,99.27
2022-10-01T04:17:21.341Z,99.69
2022-10-01T04:19:47.827Z,99.61
2022-10-01T04:22:14.363Z,99.59
2022-10-01T04:24:40.854Z,99.08
2022-10-01T04:27:07.386Z,99.40
2022-10-01T04:29:38.029Z,99.85
2022-10-01T04:32:08.217Z,99.63
2022-10-01T04:34:34.779Z,99.81
2022-10-01T04:37:01.402Z,99.66
2022-10-01T04:39:27.912Z,99.47
2022-10-01T04:41:54.502Z,99.90
2022-10-01T04:44:20.974Z,99.42
2022-10-01T04:46:47.583Z,98.70
2022-10-01T04:49:15.658Z,98.49
2022-10-01T04:51:42.435Z,98.90
2022-10-01T04:54:09.023Z,98.08
2022-10-01T04:56:35.809Z,99.56
2022-10-01T04:59:02.388Z,98.73
2022-10-01T05:01:29.299Z,97.68
2022-10-01T05:03:55.841Z,97.16
2022-10-01T05:06:23.907Z,97.27
2022-10-01T05:08:51.448Z,97.44
2022-10-01T05:11:18.727Z,98.34
2022-10-01T05:13:45.284Z,98.54
2022-10-01T05:16:11.947Z,98.88
2022-10-01T05:18:38.615Z,99.23
2022-10-01T05:21:06.017Z,98.50
2022-10-01T05:23:34.279Z,98.36
2022-10-01T05:26:00.936Z,98.35
2022-10-01T05:28:27.544Z,96.85
2022-10-01T05:30:54.263Z,96.39
2022-10-01T05:33:20.764Z,96.29
2022-10-01T05:35:47.312Z,96.13
2022-10-01T05:38:13.917Z,95.80
2022-10-01T05:40:45.585Z,96.06
2022-10-01T05:43:12.316Z,95.36
2022-10-01T05:45:39.107Z,95.72
2022-10-01T05:48:07.633Z,96.51
2022-10-01T05:50:36.106Z,96.69
2022-10-01T05:53:03.120Z,97.21
2022-10-01T05:55:30.583Z,97.58
2022-10-01T05:58:00.268Z,97.32
2022-10-01T06:00:29.050Z,98.22
2022-10-01T06:02:56.363Z,98.23
2022-10-01T06:05:23.540Z,97.85
2022-10-01T06:07:50.624Z,97.47
2022-10-01T06:10:17.931Z,98.12
2022-10-01T06:12:44.891Z,97.70
2022-10-01T06:15:13.179Z,97.85
2022-10-01T06:17:40.027Z,98.39
2022-10-01T06:20:07.083Z,98.81
2022-10-01T06:22:33.615Z,98.87
2022-10-01T06:25:00.321Z,98.92
2022-10-01T06:27:27.108Z,98.87
2022-10-01T06:29:53.833Z,98.65
2022-10-01T06:32:21.818Z,98.63
2022-10-01T06:34:48.363Z,99.05
2022-10-01T06:37:14.919Z,98.90
2022-10-01T06:39:41.457Z,99.16
2022-10-01T06:42:07.990Z,98.04
2022-10-01T06:44:34.689Z,97.86
2022-10-01T06:47:01.250Z,98.03
2022-10-01T06:49:29.181Z,97.91
2022-10-01T06:51:55.745Z,97.80
2022-10-01T06:54:22.306Z,97.33
2022-10-01T06:56:48.826Z,97.00
2022-10-01T06:59:15.343Z,97.15
2022-10-01T07:01:41.916Z,97.48
2022-10-01T07:04:08.500Z,97.12
2022-10-01T07:06:36.408Z,96.37
2022-10-01T07:09:03.101Z,96.06
2022-10-01T07:11:29.593Z,96.21
2022-10-01T07:13:56.076Z,95.63
2022-10-01T07:16:22.687Z,95.87
2022-10-01T07:18:49.239Z,96.54
2022-10-01T07:21:15.744Z,96.54
2022-10-01T07:23:43.965Z,97.14
2022-10-01T07:26:10.487Z,97.13
2022-10-01T07:28:37.056Z,96.79
2022-10-01T07:31:07.407Z,97.02
2022-10-01T07:33:34.218Z,96.64
2022-10-01T07:36:01.716Z,96.95
2022-10-01T07:38:28.306Z,97.25
2022-10-01T07:40:56.254Z,97.66
2022-10-01T07:43:22.856Z,97.32
2022-10-01T07:45:50.038Z,97.38
2022-10-01T07:48:16.924Z,98.17
2022-10-01T07:50:43.952Z,98.11
2022-10-01T07:53:11.195Z,98.09
2022-10-01T07:55:38.304Z,98.71
2022-10-01T07:58:06.819Z,98.82
2022-10-01T08:00:34.575Z,98.94
2022-10-01T08:03:01.717Z,98.63
2022-10-01T08:05:29.917Z,98.83
2022-10-01T08:07:58.864Z,98.33
2022-10-01T08:10:25.520Z,98.25
2022-10-01T08:12:52.071Z,98.24
2022-10-01T08:15:19.976Z,98.03
2022-10-01T08:17:46.477Z,97.59
2022-10-01T08:20:13.770Z,97.72
2022-10-01T08:22:42.282Z,97.65
2022-10-01T08:25:09.882Z,97.75
2022-10-01T08:27:36.748Z,97.52
2022-10-01T08:30:03.947Z,97.69
2022-10-01T08:32:32.205Z,97.50
2022-10-01T08:34:58.713Z,97.55
2022-10-01T08:37:26.303Z,97.11
2022-10-01T08:39:53.318Z,97.06
2022-10-01T08:42:37.412Z,96.87
2022-10-01T08:45:10.146Z,96.86
2022-10-01T08:47:42.050Z,96.13
2022-10-01T08:50:16.860Z,97.04
2022-10-01T08:52:52.258Z,96.70
2022-10-01T08:55:24.274Z,96.73
2022-10-01T08:57:55.978Z,92.39
2022-10-01T09:00:22.778Z,91.54
2022-10-01T09:02:51.121Z,90.12
2022-10-01T09:05:22.695Z,89.30
2022-10-01T09:08:03.720Z,88.20
2022-10-01T09:10:43.537Z,86.67
2022-10-01T09:13:40.522Z,87.40
2022-10-01T09:16:15.926Z,88.72
2022-10-01T09:18:53.931Z,86.86
2022-10-01T09:21:27.901Z,88.05
2022-10-01T09:24:03.626Z,87.01
2022-10-01T09:26:30.722Z,86.95
2022-10-01T09:29:00.568Z,86.08
2022-10-01T09:31:32.100Z,87.86
2022-10-01T09:34:02.260Z,88.58
2022-10-01T09:36:34.808Z,89.25
2022-10-01T09:39:12.895Z,89.14
2022-10-01T09:41:40.006Z,89.37
2022-10-01T09:44:18.681Z,89.35
2022-10-01T09:46:46.677Z,90.46
2022-10-01T09:49:25.542Z,90.79
2022-10-01T09:51:57.492Z,90.80
2022-10-01T09:54:33.528Z,89.70
2022-10-01T09:57:06.051Z,90.78
2022-10-01T09:59:40.324Z,90.41
2022-10-01T10:02:15.875Z,89.76
2022-10-01T10:04:43.883Z,89.74
2022-10-01T10:07:18.470Z,88.26
2022-10-01T10:09:45.495Z,88.84
2022-10-01T10:12:27.053Z,87.74
2022-10-01T10:14:55.078Z,86.73
2022-10-01T10:17:21.889Z,85.46
2022-10-01T10:19:51.646Z,86.55
2022-10-01T10:22:22.325Z,83.87
2022-10-01T10:24:48.971Z,83.31
2022-10-01T10:27:24.454Z,81.95
2022-10-01T10:30:01.883Z,82.04
2022-10-01T10:32:28.708Z,80.34
2022-10-01T10:35:03.122Z,80.37
2022-10-01T10:37:34.044Z,80.08
2022-10-01T10:40:01.157Z,79.81
2022-10-01T10:42:27.733Z,78.57
2022-10-01T10:44:57.617Z,78.12
2022-10-01T10:47:24.368Z,77.00
2022-10-01T10:49:54.625Z,77.98
2022-10-01T10:52:27.853Z,76.14
2022-10-01T10:54:54.410Z,77.71
2022-10-01T10:57:24.388Z,76.57
2022-10-01T10:59:58.909Z,76.67
2022-10-01T11:02:27.312Z,76.78
2022-10-01T11:04:54.787Z,76.52
2022-10-01T11:07:25.450Z,76.62
2022-10-01T11:10:11.360Z,72.95
2022-10-01T11:12:54.658Z,72.70
2022-10-01T11:15:34.782Z,72.84
2022-10-01T11:18:17.884Z,72.33
2022-10-01T11:20:52.538Z,71.64
2022-10-01T11:23:35.715Z,69.32
2022-10-01T11:26:14.250Z,66.07
2022-10-01T11:28:53.283Z,64.95
2022-10-01T11:31:31.462Z,65.95
2022-10-01T11:34:12.485Z,64.85
2022-10-01T11:36:53.314Z,64.66
2022-10-01T11:39:28.140Z,65.64
2022-10-01T11:41:59.157Z,62.43
2022-10-01T11:44:31.476Z,63.33
2022-10-01T11:47:01.739Z,61.05
2022-10-01T11:49:44.840Z,60.56
2022-10-01T11:52:20.378Z,60.64
2022-10-01T11:54:59.019Z,59.23
2022-10-01T11:57:26.854Z,60.80
2022-10-01T11:59:56.507Z,61.35
2022-10-01T12:02:30.321Z,59.45
2022-10-01T12:05:01.245Z,60.02
2022-10-01T12:07:32.419Z,60.11
2022-10-01T12:10:05.404Z,59.93
2022-10-01T12:12:35.089Z,58.47
2022-10-01T12:15:09.375Z,59.37
2022-10-01T12:17:40.918Z,62.16
2022-10-01T12:20:13.426Z,63.67
2022-10-01T12:22:41.961Z,66.70
2022-10-01T12:25:12.915Z,63.34
2022-10-01T12:27:51.400Z,64.50
2022-10-01T12:30:20.351Z,65.59
2022-10-01T12:32:59.553Z,64.87
2022-10-01T12:35:42.094Z,64.89
2022-10-01T12:38:19.531Z,64.27
2022-10-01T12:40:52.558Z,66.61
2022-10-01T12:43:52.578Z,66.35
2022-10-01T12:46:31.217Z,66.69
2022-10-01T12:49:05.902Z,67.46
2022-10-01T12:51:44.492Z,66.92
2022-10-01T12:54:42.055Z,67.12
2022-10-01T12:57:22.247Z,66.87
2022-10-01T13:00:01.025Z,67.78
2022-10-01T13:03:01.928Z,68.49
2022-10-01T13:05:36.043Z,67.68
2022-10-01T13:08:16.623Z,70.19
2022-10-01T13:11:03.517Z,68.83
2022-10-01T13:13:33.004Z,68.40
2022-10-01T13:16:06.884Z,68.49
2022-10-01T13:18:43.352Z,68.46
2022-10-01T13:21:16.288Z,68.21
2022-10-01T13:23:50.511Z,67.97
2022-10-01T13:26:22.763Z,68.41
2022-10-01T13:29:11.245Z,68.51
2022-10-01T13:31:50.874Z,68.95
2022-10-01T13:34:39.016Z,68.74
2022-10-01T13:37:16.785Z,68.70
2022-10-01T13:39:43.841Z,69.34
2022-10-01T13:42:19.197Z,67.12
2022-10-01T13:44:53.199Z,67.41
2022-10-01T13:47:21.474Z,67.98
2022-10-01T13:49:55.010Z,68.12
2022-10-01T13:52:21.714Z,67.79
2022-10-01T13:54:51.550Z,65.85
2022-10-01T13:57:29.335Z,66.35
2022-10-01T14:00:05.500Z,69.55
2022-10-01T14:02:37.227Z,69.07
2022-10-01T14:05:20.286Z,67.13
2022-10-01T14:07:48.785Z,69.31
2022-10-01T14:10:16.283Z,70.45
2022-10-01T14:12:45.568Z,68.77
2022-10-01T14:15:18.520Z,69.77
2022-10-01T14:17:49.827Z,67.78
2022-10-01T14:20:18.479Z,68.96
2022-10-01T14:22:55.313Z,69.24
2022-10-01T14:25:40.038Z,69.12
2022-10-01T14:28:28.677Z,67.39
2022-10-01T14:31:06.632Z,70.78
2022-10-01T14:33:53.623Z,67.79
2022-10-01T14:36:25.272Z,68.31
2022-10-01T14:39:02.339Z,68.96
2022-10-01T14:41:34.261Z,68.66
2022-10-01T14:44:01.513Z,68.79
2022-10-01T14:46:29.570Z,66.67
2022-10-01T14:48:57.892Z,66.97
2022-10-01T14:51:27.098Z,66.17
2022-10-01T14:53:56.470Z,66.18
2022-10-01T14:56:23.686Z,67.00
2022-10-01T14:58:55.505Z,67.87
2022-10-01T15:01:23.795Z,68.06
2022-10-01T15:03:52.618Z,68.89
2022-10-01T15:06:21.150Z,69.69
2022-10-01T15:08:49.306Z,70.73
2022-10-01T15:11:18.361Z,71.66
2022-10-01T15:13:47.787Z,72.45
2022-10-01T15:16:17.623Z,73.15
2022-10-01T15:18:48.059Z,73.94
2022-10-01T15:21:19.811Z,74.86
2022-10-01T15:23:48.700Z,75.35
2022-10-01T15:26:22.275Z,75.46
2022-10-01T15:28:49.332Z,75.78
2022-10-01T15:31:16.655Z,76.25
2022-10-01T15:33:43.775Z,77.13
2022-10-01T15:36:15.231Z,79.17
2022-10-01T15:38:44.884Z,80.07
2022-10-01T15:41:31.730Z,79.07
2022-10-01T15:44:02.398Z,76.98
2022-10-01T15:46:30.426Z,76.72
2022-10-01T15:49:17.336Z,75.99
2022-10-01T15:51:48.423Z,75.78
2022-10-01T15:54:16.444Z,75.74
2022-10-01T15:56:47.342Z,75.52
2022-10-01T15:59:19.470Z,76.28
2022-10-01T16:01:46.200Z,76.43
2022-10-01T16:04:14.332Z,77.31
2022-10-01T16:06:43.758Z,75.86
2022-10-01T16:09:16.849Z,74.70
2022-10-01T16:11:54.933Z,75.00
2022-10-01T16:14:29.321Z,75.00
2022-10-01T16:17:29.387Z,75.70
2022-10-01T16:19:58.253Z,76.25
2022-10-01T16:22:27.830Z,77.12
2022-10-01T16:24:57.323Z,78.98
2022-10-01T16:27:26.483Z,79.76
2022-10-01T16:29:55.355Z,80.12
2022-10-01T16:32:21.972Z,80.61
2022-10-01T16:34:48.560Z,80.76
2022-10-01T16:37:15.712Z,81.36
2022-10-01T16:39:42.387Z,81.58
2022-10-01T16:42:24.095Z,81.32
2022-10-01T16:44:51.424Z,81.69
2022-10-01T16:47:17.958Z,82.00
2022-10-01T16:49:46.495Z,82.42
2022-10-01T16:52:14.160Z,82.49
2022-10-01T16:54:40.746Z,82.66
2022-10-01T16:57:07.255Z,83.33
2022-10-01T16:59:35.198Z,84.09
2022-10-01T17:02:01.845Z,84.05
2022-10-01T17:04:33.372Z,84.78
2022-10-01T17:07:00.590Z,84.99
2022-10-01T17:09:27.107Z,85.29
2022-10-01T17:11:53.932Z,84.99
2022-10-01T17:14:20.483Z,85.54
2022-10-01T17:16:48.695Z,85.41
2022-10-01T17:19:15.265Z,85.82
2022-10-01T17:21:41.886Z,86.17
2022-10-01T17:24:08.566Z,86.59
2022-10-01T17:26:35.558Z,86.67
2022-10-01T17:29:02.390Z,86.80
2022-10-01T17:31:28.977Z,87.34
2022-10-01T17:33:56.931Z,87.46
2022-10-01T17:36:23.539Z,87.95
2022-10-01T17:38:50.067Z,88.01
2022-10-01T17:41:16.735Z,88.15
2022-10-01T17:43:45.677Z,88.58
2022-10-01T17:46:12.320Z,88.99
2022-10-01T17:48:38.897Z,88.95
2022-10-01T17:51:08.712Z,88.93
2022-10-01T17:53:42.297Z,89.32
2022-10-01T17:56:12.303Z,89.31
2022-10-01T17:58:42.957Z,89.12
2022-10-01T18:01:14.573Z,89.47
2022-10-01T18:03:41.169Z,89.47
2022-10-01T18:06:09.101Z,89.63
2022-10-01T18:08:54.066Z,89.82
2022-10-01T18:11:21.783Z,89.97
2022-10-01T18:13:48.308Z,90.61
2022-10-01T18:16:18.889Z,91.07
2022-10-01T18:19:51.868Z,91.38
2022-10-01T18:21:33.900Z,91.47
2022-10-01T18:24:04.551Z,91.82
2022-10-01T18:26:31.864Z,92.31
2022-10-01T18:28:58.462Z,92.16
2022-10-01T18:31:26.951Z,92.13
2022-10-01T18:33:55.840Z,91.72
2022-10-01T18:36:26.609Z,92.27
2022-10-01T18:39:03.335Z,92.06
2022-10-01T18:41:34.569Z,92.43
2022-10-01T18:44:01.626Z,92.32
2022-10-01T18:46:51.590Z,92.42
2022-10-01T18:49:48.000Z,92.54
2022-10-01T18:52:26.502Z,92.38
2022-10-01T18:55:09.381Z,92.04
2022-10-01T18:57:58.858Z,92.25
2022-10-01T19:00:33.501Z,92.48
2022-10-01T19:03:25.841Z,92.37
2022-10-01T19:06:28.618Z,92.67
2022-10-01T19:09:09.249Z,92.88
2022-10-01T19:11:44.919Z,93.00
2022-10-01T19:14:37.664Z,93.03
2022-10-01T19:17:16.734Z,93.27
2022-10-01T19:19:53.812Z,93.30
2022-10-01T19:22:28.277Z,93.34
2022-10-01T19:25:06.473Z,93.22
2022-10-01T19:27:47.838Z,93.71
2022-10-01T19:30:16.136Z,94.05
2022-10-01T19:32:49.445Z,93.99
2022-10-01T19:35:19.948Z,93.79
2022-10-01T19:37:51.312Z,93.75
2022-10-01T19:40:25.436Z,94.07
2022-10-01T19:43:00.755Z,94.30
2022-10-01T19:45:38.184Z,94.18
2022-10-01T19:48:12.661Z,94.38
2022-10-01T19:50:43.336Z,94.26
2022-10-01T19:53:21.470Z,94.36
2022-10-01T19:55:51.183Z,94.42
2022-10-01T19:58:20.718Z,94.63
2022-10-01T20:00:51.817Z,94.77
2022-10-01T20:03:25.823Z,94.56
2022-10-01T20:05:56.671Z,94.63
2022-10-01T20:08:32.470Z,94.30
2022-10-01T20:11:03.624Z,94.17
2022-10-01T20:14:00.106Z,94.58
2022-10-01T20:16:30.216Z,94.73
2022-10-01T20:19:06.930Z,94.99
2022-10-01T20:21:45.440Z,94.93
2022-10-01T20:24:29.953Z,94.80
2022-10-01T20:27:11.844Z,94.80
2022-10-01T20:29:46.533Z,95.15
2022-10-01T20:32:18.501Z,95.44
2022-10-01T20:34:58.143Z,95.72
2022-10-01T20:37:37.268Z,95.95
2022-10-01T20:40:14.559Z,95.81
2022-10-01T20:42:45.863Z,96.18
2022-10-01T20:45:21.539Z,96.44
2022-10-01T20:47:52.945Z,96.12
2022-10-01T20:50:24.723Z,96.12
2022-10-01T20:53:00.876Z,96.16
2022-10-01T20:55:36.031Z,96.53
2022-10-01T20:58:07.870Z,97.08
2022-10-01T21:00:37.620Z,96.85
2022-10-01T21:03:12.150Z,97.25
2022-10-01T21:05:43.013Z,97.09
2022-10-01T21:08:24.042Z,97.10
2022-10-01T21:10:54.169Z,97.16
2022-10-01T21:13:32.237Z,97.14
2022-10-01T21:16:11.262Z,96.93
2022-10-01T21:18:46.185Z,96.79
2022-10-01T21:21:25.355Z,96.57
2022-10-01T21:24:06.800Z,96.76
2022-10-01T21:26:43.826Z,96.67
2022-10-01T21:29:29.061Z,96.55
2022-10-01T21:32:07.166Z,96.57
2022-10-01T21:34:49.321Z,96.35
2022-10-01T21:37:20.536Z,96.82
2022-10-01T21:40:00.988Z,97.05
2022-10-01T21:42:40.173Z,97.33
2022-10-01T21:45:20.067Z,98.46
2022-10-01T21:48:02.268Z,98.48
2022-10-01T21:50:42.402Z,98.86
2022-10-01T21:53:29.178Z,98.27
2022-10-01T21:56:13.773Z,98.45
2022-10-01T21:58:52.184Z,98.55
2022-10-01T22:01:29.304Z,98.67
2022-10-01T22:04:05.295Z,98.65
2022-10-01T22:06:38.085Z,98.91
2022-10-01T22:09:13.130Z,98.57
2022-10-01T22:11:45.591Z,98.59
2022-10-01T22:14:15.201Z,98.83
2022-10-01T22:16:49.723Z,98.73
2022-10-01T22:19:21.317Z,99.53
2022-10-01T22:21:52.893Z,99.12
2022-10-01T22:24:23.326Z,99.60
2022-10-01T22:26:54.632Z,100.00
2022-10-01T22:29:26.300Z,100.00
2022-10-01T22:32:01.060Z,100.00
2022-10-01T22:34:33.768Z,100.00
2022-10-01T22:37:05.320Z,100.00
2022-10-01T22:39:36.549Z,100.00
2022-10-01T22:42:07.813Z,100.00
2022-10-01T22:44:34.782Z,100.00
2022-10-01T22:47:17.112Z,99.83
2022-10-01T22:50:10.156Z,99.75
2022-10-01T22:52:45.506Z,99.96
2022-10-01T22:55:24.913Z,100.00
2022-10-01T22:58:02.574Z,100.00
2022-10-01T23:00:35.700Z,99.92
2022-10-01T23:03:14.512Z,99.75
2022-10-01T23:05:53.094Z,99.22
2022-10-01T23:08:29.693Z,99.47
2022-10-01T23:11:16.467Z,99.98
2022-10-01T23:13:50.775Z,100.00
2022-10-01T23:16:26.688Z,100.00
2022-10-01T23:19:04.234Z,100.00
2022-10-01T23:21:40.749Z,100.00
2022-10-01T23:24:20.629Z,100.00
2022-10-01T23:27:00.093Z,100.00
2022-10-01T23:30:02.379Z,100.00
2022-10-01T23:32:38.820Z,100.00
2022-10-01T23:35:13.183Z,100.00
2022-10-01T23:38:05.946Z,99.73
2022-10-01T23:40:36.401Z,99.70
2022-10-01T23:43:09.654Z,99.97
2022-10-01T23:45:39.873Z,99.82
2022-10-01T23:48:13.745Z,99.92
2022-10-01T23:50:51.752Z,99.99
2022-10-01T23:53:25.005Z,99.96
2022-10-01T23:56:02.775Z,100.00
2022-10-01T23:58:40.197Z,100.00
